createdAt,value
2022-08-30T00:02:05.256Z,100.00
2022-08-30T00:04:31.886Z,100.00
2022-08-30T00:06:58.810Z,100.00
2022-08-30T00:09:25.449Z,100.00
2022-08-30T00:11:52.186Z,100.00
2022-08-30T00:14:20.434Z,100.00
2022-08-30T00:16:47.108Z,100.00
2022-08-30T00:19:13.910Z,100.00
2022-08-30T00:21:40.776Z,100.00
2022-08-30T00:24:07.459Z,100.00
2022-08-30T00:26:34.254Z,100.00
2022-08-30T00:29:00.916Z,100.00
2022-08-30T00:31:27.595Z,100.00
2022-08-30T00:33:54.235Z,100.00
2022-08-30T00:36:21.244Z,100.00
2022-08-30T00:38:47.861Z,100.00
2022-08-30T00:41:14.603Z,100.00
2022-08-30T00:43:41.243Z,100.00
2022-08-30T00:46:10.329Z,100.00
2022-08-30T00:48:43.157Z,100.00
2022-08-30T00:51:13.144Z,100.00
2022-08-30T00:53:44.563Z,100.00
2022-08-30T00:56:12.018Z,100.00
2022-08-30T00:58:42.382Z,100.00
2022-08-30T01:01:10.020Z,100.00
2022-08-30T01:03:38.397Z,100.00
2022-08-30T01:06:07.595Z,100.00
2022-08-30T01:08:35.360Z,100.00
2022-08-30T01:11:03.856Z,100.00
2022-08-30T01:13:31.484Z,100.00
2022-08-30T01:16:00.105Z,100.00
2022-08-30T01:18:27.379Z,100.00
2022-08-30T01:21:10.394Z,100.00
2022-08-30T01:23:40.430Z,100.00
2022-08-30T01:26:07.622Z,100.00
2022-08-30T01:28:34.744Z,100.00
2022-08-30T01:31:01.989Z,100.00
2022-08-30T01:33:29.123Z,100.00
2022-08-30T01:36:01.190Z,100.00
2022-08-30T01:38:34.064Z,100.00
2022-08-30T01:41:10.399Z,100.00
2022-08-30T01:43:37.017Z,100.00
2022-08-30T01:46:04.546Z,100.00
2022-08-30T01:48:31.874Z,100.00
2022-08-30T01:50:58.997Z,100.00
2022-08-30T01:53:25.632Z,100.00
2022-08-30T01:55:52.359Z,100.00
2022-08-30T01:58:18.953Z,100.00
2022-08-30T02:00:45.588Z,100.00
2022-08-30T02:03:12.365Z,100.00
2022-08-30T02:05:39.165Z,100.00
2022-08-30T02:08:05.763Z,100.00
2022-08-30T02:10:32.588Z,100.00
2022-08-30T02:12:59.766Z,100.00
2022-08-30T02:15:26.622Z,100.00
2022-08-30T02:17:53.998Z,100.00
2022-08-30T02:20:20.795Z,100.00
2022-08-30T02:22:49.314Z,100.00
2022-08-30T02:25:20.406Z,100.00
2022-08-30T02:27:47.729Z,100.00
2022-08-30T02:30:14.466Z,100.00
2022-08-30T02:32:41.620Z,100.00
2022-08-30T02:35:08.657Z,100.00
2022-08-30T02:37:35.455Z,100.00
2022-08-30T02:40:02.270Z,100.00
2022-08-30T02:42:28.979Z,100.00
2022-08-30T02:44:56.830Z,100.00
2022-08-30T02:47:23.450Z,100.00
2022-08-30T02:49:50.028Z,100.00
2022-08-30T02:52:16.774Z,100.00
2022-08-30T02:54:43.514Z,100.00
2022-08-30T02:57:20.186Z,100.00
2022-08-30T02:59:48.070Z,100.00
2022-08-30T03:02:15.578Z,100.00
2022-08-30T03:04:44.969Z,100.00
2022-08-30T03:07:12.802Z,100.00
2022-08-30T03:09:39.726Z,100.00
2022-08-30T03:12:07.832Z,100.00
2022-08-30T03:14:36.349Z,100.00
2022-08-30T03:17:04.903Z,100.00
2022-08-30T03:19:31.573Z,100.00
2022-08-30T03:21:58.211Z,100.00
2022-08-30T03:24:25.906Z,100.00
2022-08-30T03:26:52.817Z,100.00
2022-08-30T03:29:19.434Z,100.00
2022-08-30T03:31:53.613Z,100.00
2022-08-30T03:34:21.928Z,100.00
2022-08-30T03:36:49.478Z,100.00
2022-08-30T03:39:16.205Z,100.00
2022-08-30T03:41:42.882Z,100.00
2022-08-30T03:44:09.554Z,100.00
2022-08-30T03:46:37.562Z,100.00
2022-08-30T03:49:05.424Z,100.00
2022-08-30T03:51:33.903Z,100.00
2022-08-30T03:54:01.754Z,100.00
2022-08-30T03:56:28.815Z,100.00
2022-08-30T03:58:55.409Z,100.00
2022-08-30T04:01:22.190Z,100.00
2022-08-30T04:03:48.857Z,100.00
2022-08-30T04:06:15.712Z,100.00
2022-08-30T04:08:43.322Z,100.00
2022-08-30T04:11:14.976Z,100.00
2022-08-30T04:13:41.566Z,100.00
2022-08-30T04:16:08.248Z,100.00
2022-08-30T04:18:36.586Z,100.00
2022-08-30T04:21:04.234Z,100.00
2022-08-30T04:23:30.868Z,100.00
2022-08-30T04:25:57.495Z,100.00
2022-08-30T04:28:24.410Z,100.00
2022-08-30T04:30:51.109Z,100.00
2022-08-30T04:33:18.025Z,100.00
2022-08-30T04:35:46.850Z,100.00
2022-08-30T04:38:14.252Z,100.00
2022-08-30T04:40:42.525Z,100.00
2022-08-30T04:43:09.842Z,100.00
2022-08-30T04:45:38.363Z,100.00
2022-08-30T04:48:05.172Z,100.00
2022-08-30T04:50:32.361Z,100.00
2022-08-30T04:52:59.650Z,100.00
2022-08-30T04:55:26.292Z,100.00
2022-08-30T04:57:53.328Z,100.00
2022-08-30T05:00:23.359Z,100.00
2022-08-30T05:02:50.069Z,100.00
2022-08-30T05:05:35.922Z,100.00
2022-08-30T05:08:02.801Z,100.00
2022-08-30T05:10:29.753Z,100.00
2022-08-30T05:12:56.589Z,100.00
2022-08-30T05:15:23.179Z,100.00
2022-08-30T05:17:49.964Z,100.00
2022-08-30T05:20:17.312Z,100.00
2022-08-30T05:22:53.664Z,100.00
2022-08-30T05:25:24.006Z,100.00
2022-08-30T05:27:51.103Z,100.00
2022-08-30T05:30:18.964Z,95.70
2022-08-30T05:32:46.101Z,92.63
2022-08-30T05:35:15.138Z,84.66
2022-08-30T05:37:42.195Z,78.06
2022-08-30T05:40:10.896Z,75.74
2022-08-30T05:42:38.554Z,74.67
2022-08-30T05:45:06.110Z,73.75
2022-08-30T05:47:32.711Z,69.88
2022-08-30T05:49:59.428Z,64.40
2022-08-30T05:52:26.043Z,64.62
2022-08-30T05:54:55.740Z,62.80
2022-08-30T05:57:22.816Z,60.96
2022-08-30T05:59:49.417Z,58.66
2022-08-30T06:02:16.114Z,56.09
2022-08-30T06:04:42.730Z,54.74
2022-08-30T06:07:12.929Z,55.23
2022-08-30T06:09:42.221Z,53.36
2022-08-30T06:12:08.912Z,52.82
2022-08-30T06:14:35.618Z,51.26
2022-08-30T06:17:02.193Z,49.78
2022-08-30T06:19:28.862Z,49.36
2022-08-30T06:21:55.682Z,49.05
2022-08-30T06:24:35.779Z,48.48
2022-08-30T06:27:10.063Z,48.69
2022-08-30T06:29:36.783Z,48.51
2022-08-30T06:32:03.781Z,48.39
2022-08-30T06:34:30.769Z,48.66
2022-08-30T06:36:57.322Z,47.92
2022-08-30T06:39:24.066Z,47.85
2022-08-30T06:41:50.765Z,47.82
2022-08-30T06:44:17.733Z,48.61
2022-08-30T06:46:44.437Z,47.61
2022-08-30T06:49:11.162Z,47.80
2022-08-30T06:51:39.749Z,47.85
2022-08-30T06:54:10.622Z,47.54
2022-08-30T06:56:40.199Z,47.39
2022-08-30T06:59:09.530Z,47.34
2022-08-30T07:01:36.280Z,47.74
2022-08-30T07:04:03.333Z,46.58
2022-08-30T07:06:32.363Z,46.67
2022-08-30T07:08:59.007Z,46.61
2022-08-30T07:11:36.941Z,46.36
2022-08-30T07:14:04.848Z,46.06
2022-08-30T07:16:31.807Z,46.57
2022-08-30T07:18:58.851Z,46.45
2022-08-30T07:21:28.850Z,47.18
2022-08-30T07:23:58.364Z,48.55
2022-08-30T07:26:33.511Z,46.83
2022-08-30T07:29:00.846Z,45.82
2022-08-30T07:31:27.598Z,47.04
2022-08-30T07:33:54.584Z,46.04
2022-08-30T07:36:22.105Z,44.99
2022-08-30T07:38:52.744Z,45.07
2022-08-30T07:41:26.330Z,45.37
2022-08-30T07:43:53.787Z,44.56
2022-08-30T07:46:21.797Z,44.18
2022-08-30T07:48:48.722Z,44.91
2022-08-30T07:51:22.230Z,44.72
2022-08-30T07:53:49.024Z,45.16
2022-08-30T07:56:16.437Z,44.97
2022-08-30T07:58:43.252Z,45.49
2022-08-30T08:01:12.299Z,43.65
2022-08-30T08:03:40.991Z,44.39
2022-08-30T08:06:09.280Z,43.21
2022-08-30T08:08:36.437Z,44.08
2022-08-30T08:11:08.697Z,43.74
2022-08-30T08:13:44.657Z,44.71
2022-08-30T08:16:22.221Z,43.66
2022-08-30T08:18:48.878Z,44.58
2022-08-30T08:21:15.634Z,44.43
2022-08-30T08:23:42.635Z,44.54
2022-08-30T08:26:09.361Z,43.76
2022-08-30T08:28:36.007Z,42.62
2022-08-30T08:31:03.609Z,43.59
2022-08-30T08:33:30.641Z,44.08
2022-08-30T08:35:57.237Z,43.79
2022-08-30T08:38:23.810Z,42.95
2022-08-30T08:41:11.116Z,42.27
2022-08-30T08:43:38.211Z,43.02
2022-08-30T08:46:30.037Z,43.92
2022-08-30T08:49:04.051Z,42.14
2022-08-30T08:51:54.401Z,42.19
2022-08-30T08:54:33.051Z,43.06
2022-08-30T08:57:00.920Z,43.51
2022-08-30T08:59:27.936Z,42.69
2022-08-30T09:02:00.894Z,42.67
2022-08-30T09:04:33.897Z,42.95
2022-08-30T09:07:05.616Z,43.52
2022-08-30T09:09:40.788Z,41.86
2022-08-30T09:12:10.310Z,42.82
2022-08-30T09:14:45.976Z,41.24
2022-08-30T09:17:15.859Z,40.61
2022-08-30T09:19:42.465Z,42.00
2022-08-30T09:22:25.945Z,42.64
2022-08-30T09:24:54.623Z,41.96
2022-08-30T09:27:27.118Z,41.50
2022-08-30T09:30:18.804Z,40.61
2022-08-30T09:32:57.267Z,39.44
2022-08-30T09:35:37.034Z,39.74
2022-08-30T09:38:07.023Z,39.56
2022-08-30T09:40:38.703Z,40.20
2022-08-30T09:43:17.341Z,40.68
2022-08-30T09:45:49.677Z,41.00
2022-08-30T09:48:40.497Z,39.88
2022-08-30T09:51:10.108Z,38.23
2022-08-30T09:54:19.007Z,37.81
2022-08-30T09:56:54.864Z,39.50
2022-08-30T09:59:39.732Z,37.69
2022-08-30T10:02:28.358Z,38.31
2022-08-30T10:05:16.363Z,37.06
2022-08-30T10:08:01.914Z,37.09
2022-08-30T10:10:45.641Z,37.35
2022-08-30T10:13:28.716Z,36.80
2022-08-30T10:16:05.051Z,35.74
2022-08-30T10:18:56.030Z,35.79
2022-08-30T10:21:40.951Z,36.57
2022-08-30T10:24:20.777Z,36.38
2022-08-30T10:26:57.463Z,38.84
2022-08-30T10:29:30.693Z,37.45
2022-08-30T10:32:03.414Z,38.17
2022-08-30T10:34:40.001Z,34.40
2022-08-30T10:37:37.348Z,35.01
2022-08-30T10:40:32.089Z,33.57
2022-08-30T10:43:02.803Z,34.53
2022-08-30T10:45:32.440Z,35.77
2022-08-30T10:48:36.662Z,36.21
2022-08-30T10:51:14.318Z,34.96
2022-08-30T10:53:47.986Z,37.02
2022-08-30T10:56:21.276Z,37.33
2022-08-30T10:58:48.962Z,36.20
2022-08-30T11:01:51.389Z,36.08
2022-08-30T11:04:32.956Z,36.06
2022-08-30T11:07:18.133Z,34.18
2022-08-30T11:10:20.174Z,33.76
2022-08-30T11:13:09.333Z,34.40
2022-08-30T11:15:53.336Z,34.68
2022-08-30T11:18:21.523Z,34.73
2022-08-30T11:20:53.414Z,33.51
2022-08-30T11:23:36.345Z,34.02
2022-08-30T11:26:08.004Z,32.98
2022-08-30T11:28:41.753Z,33.27
2022-08-30T11:31:09.635Z,35.05
2022-08-30T11:33:42.685Z,34.72
2022-08-30T11:36:37.851Z,35.86
2022-08-30T11:39:44.510Z,37.87
2022-08-30T11:42:29.298Z,33.04
2022-08-30T11:45:24.704Z,33.07
2022-08-30T11:47:52.126Z,34.10
2022-08-30T11:50:40.394Z,35.68
2022-08-30T11:53:06.956Z,34.09
2022-08-30T11:55:46.162Z,34.67
2022-08-30T11:58:43.976Z,32.58
2022-08-30T12:01:40.767Z,34.30
2022-08-30T12:04:16.634Z,34.27
2022-08-30T12:07:09.614Z,31.75
2022-08-30T12:09:36.203Z,31.80
2022-08-30T12:12:32.534Z,32.85
2022-08-30T12:15:00.342Z,33.28
2022-08-30T12:18:06.706Z,32.24
2022-08-30T12:20:47.907Z,31.33
2022-08-30T12:23:44.426Z,31.20
2022-08-30T12:26:13.274Z,30.89
2022-08-30T12:28:42.167Z,31.39
2022-08-30T12:31:22.944Z,32.46
2022-08-30T12:34:01.253Z,32.94
2022-08-30T12:36:49.662Z,31.74
2022-08-30T12:39:20.509Z,33.79
2022-08-30T12:41:47.135Z,32.32
2022-08-30T12:44:25.567Z,32.84
2022-08-30T12:46:59.566Z,33.91
2022-08-30T12:49:29.714Z,33.69
2022-08-30T12:52:15.911Z,35.29
2022-08-30T12:54:44.107Z,33.50
2022-08-30T12:57:34.210Z,33.56
2022-08-30T13:00:01.846Z,34.96
2022-08-30T13:02:45.104Z,33.79
2022-08-30T13:05:42.944Z,34.51
2022-08-30T13:08:35.831Z,35.48
2022-08-30T13:11:08.270Z,35.12
2022-08-30T13:13:37.639Z,36.89
2022-08-30T13:16:20.677Z,34.67
2022-08-30T13:18:53.357Z,33.11
2022-08-30T13:21:22.658Z,32.79
2022-08-30T13:23:51.559Z,32.29
2022-08-30T13:26:23.256Z,33.04
2022-08-30T13:28:55.240Z,32.64
2022-08-30T13:31:22.622Z,32.38
2022-08-30T13:33:52.992Z,31.37
2022-08-30T13:36:28.198Z,31.62
2022-08-30T13:38:55.476Z,31.35
2022-08-30T13:41:22.246Z,33.70
2022-08-30T13:46:36.613Z,32.92
2022-08-30T13:49:42.880Z,31.99
2022-08-30T13:52:16.333Z,32.76
2022-08-30T13:54:40.825Z,32.92
2022-08-30T13:57:07.462Z,33.41
2022-08-30T13:59:34.394Z,33.19
2022-08-30T14:02:10.696Z,32.56
2022-08-30T14:04:38.423Z,32.33
2022-08-30T14:07:13.926Z,33.48
2022-08-30T14:09:46.697Z,33.02
2022-08-30T14:12:13.459Z,33.76
2022-08-30T14:14:43.278Z,33.37
2022-08-30T14:17:11.191Z,32.64
2022-08-30T14:19:39.287Z,34.04
2022-08-30T14:22:05.885Z,33.72
2022-08-30T14:24:32.478Z,34.62
2022-08-30T14:26:59.125Z,35.47
2022-08-30T14:29:29.785Z,34.48
2022-08-30T14:31:59.674Z,35.50
2022-08-30T14:34:26.607Z,35.04
2022-08-30T14:36:53.309Z,33.81
2022-08-30T14:39:21.376Z,34.13
2022-08-30T14:41:53.507Z,34.58
2022-08-30T14:44:22.872Z,35.42
2022-08-30T14:46:51.054Z,35.60
2022-08-30T14:49:19.152Z,34.49
2022-08-30T14:51:48.484Z,34.03
2022-08-30T14:54:17.710Z,33.88
2022-08-30T14:56:45.271Z,34.38
2022-08-30T14:59:12.191Z,34.17
2022-08-30T15:01:41.507Z,35.19
2022-08-30T15:04:09.765Z,34.30
2022-08-30T15:06:38.545Z,35.98
2022-08-30T15:09:09.099Z,37.07
2022-08-30T15:11:38.312Z,37.42
2022-08-30T15:14:06.453Z,36.10
2022-08-30T15:16:36.041Z,35.35
2022-08-30T15:19:05.031Z,35.85
2022-08-30T15:21:37.744Z,35.45
2022-08-30T15:24:06.114Z,35.87
2022-08-30T15:26:33.298Z,36.65
2022-08-30T15:28:59.903Z,37.05
2022-08-30T15:31:28.753Z,35.92
2022-08-30T15:33:55.471Z,35.53
2022-08-30T15:36:23.948Z,36.14
2022-08-30T15:38:55.474Z,37.32
2022-08-30T15:41:23.696Z,35.96
2022-08-30T15:43:52.853Z,36.98
2022-08-30T15:46:23.685Z,37.51
2022-08-30T15:49:00.535Z,36.87
2022-08-30T15:51:27.283Z,38.00
2022-08-30T15:53:54.426Z,37.93
2022-08-30T15:56:21.235Z,37.04
2022-08-30T15:58:48.412Z,37.56
2022-08-30T16:01:16.290Z,37.17
2022-08-30T16:03:46.803Z,36.59
2022-08-30T16:06:28.258Z,37.74
2022-08-30T16:08:55.760Z,36.82
2022-08-30T16:11:24.868Z,37.75
2022-08-30T16:13:53.605Z,37.48
2022-08-30T16:16:21.484Z,37.39
2022-08-30T16:18:53.976Z,37.09
2022-08-30T16:21:25.485Z,38.52
2022-08-30T16:23:55.158Z,37.63
2022-08-30T16:26:22.276Z,36.76
2022-08-30T16:28:49.297Z,37.32
2022-08-30T16:31:18.015Z,36.20
2022-08-30T16:33:45.321Z,36.96
2022-08-30T16:36:12.795Z,36.53
2022-08-30T16:38:40.874Z,37.04
2022-08-30T16:41:11.182Z,37.37
2022-08-30T16:43:39.667Z,37.11
2022-08-30T16:46:12.396Z,37.70
2022-08-30T16:48:41.130Z,38.79
2022-08-30T16:51:12.594Z,39.21
2022-08-30T16:53:39.863Z,38.20
2022-08-30T16:56:13.570Z,38.78
2022-08-30T16:58:41.101Z,38.70
2022-08-30T17:01:08.554Z,38.15
2022-08-30T17:03:37.645Z,40.07
2022-08-30T17:06:05.816Z,39.78
2022-08-30T17:08:33.342Z,40.22
2022-08-30T17:10:59.924Z,40.47
2022-08-30T17:13:27.010Z,41.31
2022-08-30T17:15:53.693Z,41.61
2022-08-30T17:18:20.545Z,41.87
2022-08-30T17:20:47.819Z,42.34
2022-08-30T17:23:14.909Z,42.30
2022-08-30T17:25:43.276Z,42.50
2022-08-30T17:28:10.750Z,42.57
2022-08-30T17:30:37.690Z,42.98
2022-08-30T17:33:04.570Z,42.99
2022-08-30T17:35:31.213Z,43.27
2022-08-30T17:37:58.031Z,43.52
2022-08-30T17:40:24.692Z,44.32
2022-08-30T17:42:51.502Z,44.37
2022-08-30T17:45:18.790Z,44.67
2022-08-30T17:47:45.858Z,44.11
2022-08-30T17:50:14.272Z,44.82
2022-08-30T17:52:42.166Z,45.80
2022-08-30T17:55:10.027Z,45.04
2022-08-30T17:57:37.176Z,45.08
2022-08-30T18:00:07.768Z,45.29
2022-08-30T18:02:34.801Z,45.93
2022-08-30T18:05:04.835Z,46.25
2022-08-30T18:07:31.578Z,46.87
2022-08-30T18:09:59.422Z,46.65
2022-08-30T18:12:26.165Z,47.97
2022-08-30T18:14:54.035Z,48.31
2022-08-30T18:17:21.115Z,48.47
2022-08-30T18:19:47.932Z,48.14
2022-08-30T18:22:16.490Z,47.98
2022-08-30T18:24:44.926Z,48.92
2022-08-30T18:27:12.003Z,49.17
2022-08-30T18:29:40.560Z,49.48
2022-08-30T18:32:09.198Z,49.24
2022-08-30T18:34:35.994Z,49.85
2022-08-30T18:37:02.776Z,49.97
2022-08-30T18:39:34.602Z,50.32
2022-08-30T18:42:02.105Z,50.54
2022-08-30T18:44:33.421Z,51.49
2022-08-30T18:47:03.637Z,52.04
2022-08-30T18:49:32.583Z,51.77
2022-08-30T18:52:00.479Z,51.91
2022-08-30T18:54:27.749Z,52.50
2022-08-30T18:56:54.539Z,52.16
2022-08-30T18:59:21.544Z,53.15
2022-08-30T19:01:49.118Z,53.07
2022-08-30T19:04:22.178Z,52.83
2022-08-30T19:06:55.435Z,53.75
2022-08-30T19:09:23.438Z,53.24
2022-08-30T19:11:50.021Z,54.34
2022-08-30T19:14:19.125Z,54.62
2022-08-30T19:16:45.781Z,54.71
2022-08-30T19:19:13.022Z,54.46
2022-08-30T19:21:40.187Z,55.43
2022-08-30T19:24:07.906Z,56.52
2022-08-30T19:26:35.904Z,55.69
2022-08-30T19:29:04.994Z,55.96
2022-08-30T19:31:31.893Z,56.90
2022-08-30T19:33:58.722Z,56.67
2022-08-30T19:36:25.519Z,57.80
2022-08-30T19:38:52.110Z,57.82
2022-08-30T19:41:22.396Z,59.00
2022-08-30T19:43:49.608Z,59.47
2022-08-30T19:46:16.341Z,58.70
2022-08-30T19:48:43.309Z,59.08
2022-08-30T19:51:15.177Z,60.36
2022-08-30T19:53:43.055Z,61.08
2022-08-30T19:56:09.898Z,60.79
2022-08-30T19:58:36.502Z,62.23
2022-08-30T20:01:10.557Z,63.25
2022-08-30T20:03:39.791Z,63.41
2022-08-30T20:06:07.890Z,63.89
2022-08-30T20:08:36.111Z,65.05
2022-08-30T20:11:03.020Z,65.07
2022-08-30T20:13:29.651Z,66.47
2022-08-30T20:16:00.521Z,67.02
2022-08-30T20:18:27.232Z,67.56
2022-08-30T20:20:55.309Z,67.00
2022-08-30T20:23:25.681Z,67.36
2022-08-30T20:25:54.777Z,69.42
2022-08-30T20:28:21.950Z,68.34
2022-08-30T20:30:49.628Z,67.79
2022-08-30T20:33:17.377Z,68.03
2022-08-30T20:35:48.754Z,68.20
2022-08-30T20:38:21.647Z,69.80
2022-08-30T20:40:51.263Z,71.37
2022-08-30T20:43:20.946Z,72.30
2022-08-30T20:45:48.466Z,72.46
2022-08-30T20:48:15.702Z,72.07
2022-08-30T20:50:43.314Z,72.55
2022-08-30T20:53:10.313Z,72.68
2022-08-30T20:55:47.450Z,75.02
2022-08-30T20:58:14.503Z,73.52
2022-08-30T21:00:45.622Z,74.87
2022-08-30T21:03:27.496Z,72.85
2022-08-30T21:05:55.450Z,73.00
2022-08-30T21:08:22.139Z,72.47
2022-08-30T21:10:48.821Z,74.45
2022-08-30T21:13:15.779Z,74.22
2022-08-30T21:15:46.052Z,73.38
2022-08-30T21:18:14.644Z,75.07
2022-08-30T21:20:41.692Z,76.48
2022-08-30T21:23:08.393Z,76.34
2022-08-30T21:25:39.153Z,78.50
2022-08-30T21:28:07.044Z,76.60
2022-08-30T21:30:34.882Z,78.05
2022-08-30T21:33:03.816Z,78.14
2022-08-30T21:35:48.633Z,80.48
2022-08-30T21:38:15.961Z,79.34
2022-08-30T21:40:43.198Z,81.11
2022-08-30T21:43:10.827Z,80.31
2022-08-30T21:45:42.354Z,79.61
2022-08-30T21:48:10.962Z,78.37
2022-08-30T21:50:42.687Z,78.42
2022-08-30T21:53:10.648Z,79.70
2022-08-30T21:55:37.460Z,80.46
2022-08-30T21:58:04.734Z,80.39
2022-08-30T22:00:33.649Z,79.50
2022-08-30T22:03:00.491Z,81.08
2022-08-30T22:05:27.385Z,80.28
2022-08-30T22:07:54.103Z,80.86
2022-08-30T22:10:21.224Z,81.85
2022-08-30T22:12:47.946Z,82.82
2022-08-30T22:15:15.015Z,86.30
2022-08-30T22:17:43.245Z,88.10
2022-08-30T22:20:10.378Z,89.41
2022-08-30T22:22:37.962Z,87.60
2022-08-30T22:25:04.934Z,90.23
2022-08-30T22:27:31.662Z,89.74
2022-08-30T22:29:58.254Z,89.60
2022-08-30T22:32:24.839Z,90.59
2022-08-30T22:34:51.642Z,89.99
2022-08-30T22:37:18.290Z,90.69
2022-08-30T22:39:44.968Z,89.68
2022-08-30T22:42:11.630Z,90.85
2022-08-30T22:44:40.936Z,92.74
2022-08-30T22:47:08.725Z,93.15
2022-08-30T22:49:35.355Z,91.77
2022-08-30T22:52:01.944Z,92.53
2022-08-30T22:54:28.656Z,94.41
2022-08-30T22:56:55.232Z,94.69
2022-08-30T22:59:24.372Z,96.79
2022-08-30T23:02:00.324Z,97.65
2022-08-30T23:04:27.132Z,97.50
2022-08-30T23:06:53.887Z,100.00
2022-08-30T23:09:20.513Z,99.44
2022-08-30T23:11:47.387Z,100.00
2022-08-30T23:14:14.239Z,100.00
2022-08-30T23:16:40.885Z,100.00
2022-08-30T23:19:07.535Z,100.00
2022-08-30T23:21:34.124Z,100.00
2022-08-30T23:24:19.325Z,100.00
2022-08-30T23:27:05.113Z,100.00
2022-08-30T23:29:51.576Z,100.00
2022-08-30T23:32:37.594Z,100.00
2022-08-30T23:35:29.154Z,100.00
2022-08-30T23:38:18.538Z,100.00
2022-08-30T23:41:03.991Z,100.00
2022-08-30T23:43:49.393Z,100.00
2022-08-30T23:46:34.741Z,100.00
2022-08-30T23:49:20.517Z,100.00
2022-08-30T23:52:05.647Z,100.00
2022-08-30T23:54:50.846Z,100.00
2022-08-30T23:57:36.025Z,100.00
